sensor_id;sensor_type;location;lat;lon;timestamp;P1;durP1;ratioP1;P2;durP2;ratioP2
46090;SDS011;31826;53.572;10.170;2022-07-22T00:01:17;24.07;;;13.43;;
46090;SDS011;31826;53.572;10.170;2022-07-22T00:03:44;22.90;;;13.67;;
46090;SDS011;31826;53.572;10.170;2022-07-22T00:06:10;24.40;;;14.00;;
46090;SDS011;31826;53.572;10.170;2022-07-22T00:08:36;23.57;;;14.33;;
46090;SDS011;31826;53.572;10.170;2022-07-22T00:11:03;24.23;;;15.07;;
46090;SDS011;31826;53.572;10.170;2022-07-22T00:13:29;23.17;;;14.13;;
46090;SDS011;31826;53.572;10.170;2022-07-22T00:15:55;25.67;;;13.80;;
46090;SDS011;31826;53.572;10.170;2022-07-22T00:18:21;23.63;;;14.35;;
46090;SDS011;31826;53.572;10.170;2022-07-22T00:20:47;23.27;;;13.73;;
46090;SDS011;31826;53.572;10.170;2022-07-22T00:23:13;22.58;;;13.60;;
46090;SDS011;31826;53.572;10.170;2022-07-22T00:25:38;23.33;;;14.07;;
46090;SDS011;31826;53.572;10.170;2022-07-22T00:28:04;23.17;;;13.80;;
46090;SDS011;31826;53.572;10.170;2022-07-22T00:30:30;26.27;;;14.45;;
46090;SDS011;31826;53.572;10.170;2022-07-22T00:32:56;22.77;;;13.43;;
46090;SDS011;31826;53.572;10.170;2022-07-22T00:35:22;25.02;;;14.63;;
46090;SDS011;31826;53.572;10.170;2022-07-22T00:37:48;23.52;;;13.43;;
46090;SDS011;31826;53.572;10.170;2022-07-22T00:40:14;22.67;;;14.23;;
46090;SDS011;31826;53.572;10.170;2022-07-22T00:42:39;23.63;;;14.00;;
46090;SDS011;31826;53.572;10.170;2022-07-22T00:45:06;23.52;;;13.45;;
46090;SDS011;31826;53.572;10.170;2022-07-22T00:47:32;21.20;;;12.88;;
46090;SDS011;31826;53.572;10.170;2022-07-22T00:49:58;19.60;;;12.02;;
46090;SDS011;31826;53.572;10.170;2022-07-22T00:52:24;19.63;;;11.63;;
46090;SDS011;31826;53.572;10.170;2022-07-22T00:54:51;17.10;;;8.85;;
46090;SDS011;31826;53.572;10.170;2022-07-22T00:57:17;17.05;;;9.75;;
46090;SDS011;31826;53.572;10.170;2022-07-22T00:59:43;18.33;;;10.05;;
46090;SDS011;31826;53.572;10.170;2022-07-22T01:02:09;19.13;;;10.20;;
46090;SDS011;31826;53.572;10.170;2022-07-22T01:04:35;21.10;;;10.55;;
46090;SDS011;31826;53.572;10.170;2022-07-22T01:07:01;18.13;;;9.45;;
46090;SDS011;31826;53.572;10.170;2022-07-22T01:09:28;20.35;;;9.57;;
46090;SDS011;31826;53.572;10.170;2022-07-22T01:11:54;16.02;;;9.23;;
46090;SDS011;31826;53.572;10.170;2022-07-22T01:14:19;16.33;;;8.27;;
46090;SDS011;31826;53.572;10.170;2022-07-22T01:16:45;15.30;;;8.32;;
46090;SDS011;31826;53.572;10.170;2022-07-22T01:19:11;16.13;;;8.35;;
46090;SDS011;31826;53.572;10.170;2022-07-22T01:21:37;16.60;;;7.60;;
46090;SDS011;31826;53.572;10.170;2022-07-22T01:24:03;13.60;;;6.70;;
46090;SDS011;31826;53.572;10.170;2022-07-22T01:26:29;13.65;;;7.10;;
46090;SDS011;31826;53.572;10.170;2022-07-22T01:28:55;10.97;;;5.10;;
46090;SDS011;31826;53.572;10.170;2022-07-22T01:31:21;7.55;;;3.78;;
46090;SDS011;31826;53.572;10.170;2022-07-22T01:33:47;6.27;;;2.90;;
46090;SDS011;31826;53.572;10.170;2022-07-22T01:36:13;5.70;;;2.63;;
46090;SDS011;31826;53.572;10.170;2022-07-22T01:38:39;5.10;;;2.33;;
46090;SDS011;31826;53.572;10.170;2022-07-22T01:41:04;4.22;;;2.10;;
46090;SDS011;31826;53.572;10.170;2022-07-22T01:43:30;4.78;;;2.38;;
46090;SDS011;31826;53.572;10.170;2022-07-22T01:45:56;3.92;;;1.95;;
46090;SDS011;31826;53.572;10.170;2022-07-22T01:48:22;4.40;;;1.98;;
46090;SDS011;31826;53.572;10.170;2022-07-22T01:50:48;3.80;;;1.70;;
46090;SDS011;31826;53.572;10.170;2022-07-22T01:53:15;3.70;;;1.70;;
46090;SDS011;31826;53.572;10.170;2022-07-22T01:55:41;4.65;;;2.10;;
46090;SDS011;31826;53.572;10.170;2022-07-22T01:58:07;5.07;;;1.90;;
46090;SDS011;31826;53.572;10.170;2022-07-22T02:00:33;5.30;;;2.23;;
46090;SDS011;31826;53.572;10.170;2022-07-22T02:02:59;5.28;;;2.15;;
46090;SDS011;31826;53.572;10.170;2022-07-22T02:05:25;5.28;;;2.17;;
46090;SDS011;31826;53.572;10.170;2022-07-22T02:07:51;4.32;;;2.13;;
46090;SDS011;31826;53.572;10.170;2022-07-22T02:10:17;4.07;;;1.92;;
46090;SDS011;31826;53.572;10.170;2022-07-22T02:12:43;4.35;;;2.10;;
46090;SDS011;31826;53.572;10.170;2022-07-22T02:15:09;8.45;;;2.25;;
46090;SDS011;31826;53.572;10.170;2022-07-22T02:17:35;5.40;;;2.22;;
46090;SDS011;31826;53.572;10.170;2022-07-22T02:20:02;7.72;;;2.75;;
46090;SDS011;31826;53.572;10.170;2022-07-22T02:22:29;7.80;;;3.50;;
46090;SDS011;31826;53.572;10.170;2022-07-22T02:24:55;11.07;;;3.85;;
46090;SDS011;31826;53.572;10.170;2022-07-22T02:27:21;15.87;;;4.57;;
46090;SDS011;31826;53.572;10.170;2022-07-22T02:29:46;12.63;;;4.60;;
46090;SDS011;31826;53.572;10.170;2022-07-22T02:32:12;13.82;;;4.35;;
46090;SDS011;31826;53.572;10.170;2022-07-22T02:34:38;11.88;;;4.40;;
46090;SDS011;31826;53.572;10.170;2022-07-22T02:37:04;10.70;;;4.13;;
46090;SDS011;31826;53.572;10.170;2022-07-22T02:39:29;11.73;;;4.20;;
46090;SDS011;31826;53.572;10.170;2022-07-22T02:41:55;9.60;;;4.27;;
46090;SDS011;31826;53.572;10.170;2022-07-22T02:44:21;9.90;;;3.87;;
46090;SDS011;31826;53.572;10.170;2022-07-22T02:46:46;10.23;;;4.03;;
46090;SDS011;31826;53.572;10.170;2022-07-22T02:49:12;10.43;;;3.58;;
46090;SDS011;31826;53.572;10.170;2022-07-22T02:51:38;11.13;;;4.00;;
46090;SDS011;31826;53.572;10.170;2022-07-22T02:54:04;10.63;;;3.92;;
46090;SDS011;31826;53.572;10.170;2022-07-22T02:56:30;10.65;;;3.33;;
46090;SDS011;31826;53.572;10.170;2022-07-22T02:58:56;11.43;;;3.63;;
46090;SDS011;31826;53.572;10.170;2022-07-22T03:01:22;14.63;;;3.58;;
46090;SDS011;31826;53.572;10.170;2022-07-22T03:03:48;8.05;;;2.92;;
46090;SDS011;31826;53.572;10.170;2022-07-22T03:06:13;9.00;;;2.95;;
46090;SDS011;31826;53.572;10.170;2022-07-22T03:08:39;7.97;;;2.80;;
46090;SDS011;31826;53.572;10.170;2022-07-22T03:11:05;9.73;;;2.70;;
46090;SDS011;31826;53.572;10.170;2022-07-22T03:13:31;9.73;;;2.87;;
46090;SDS011;31826;53.572;10.170;2022-07-22T03:15:57;9.75;;;2.88;;
46090;SDS011;31826;53.572;10.170;2022-07-22T03:18:23;7.77;;;2.67;;
46090;SDS011;31826;53.572;10.170;2022-07-22T03:20:48;11.47;;;3.47;;
46090;SDS011;31826;53.572;10.170;2022-07-22T03:23:14;10.32;;;2.42;;
46090;SDS011;31826;53.572;10.170;2022-07-22T03:25:40;9.23;;;2.95;;
46090;SDS011;31826;53.572;10.170;2022-07-22T03:28:06;8.23;;;2.80;;
46090;SDS011;31826;53.572;10.170;2022-07-22T03:30:32;8.30;;;2.50;;
46090;SDS011;31826;53.572;10.170;2022-07-22T03:32:58;10.10;;;2.57;;
46090;SDS011;31826;53.572;10.170;2022-07-22T03:35:24;6.50;;;2.00;;
46090;SDS011;31826;53.572;10.170;2022-07-22T03:37:49;7.32;;;2.10;;
46090;SDS011;31826;53.572;10.170;2022-07-22T03:40:15;7.07;;;1.92;;
46090;SDS011;31826;53.572;10.170;2022-07-22T03:42:41;8.75;;;2.30;;
46090;SDS011;31826;53.572;10.170;2022-07-22T03:45:08;9.02;;;2.63;;
46090;SDS011;31826;53.572;10.170;2022-07-22T03:47:34;7.68;;;2.10;;
46090;SDS011;31826;53.572;10.170;2022-07-22T03:50:01;7.63;;;1.90;;
46090;SDS011;31826;53.572;10.170;2022-07-22T03:52:30;4.70;;;2.20;;
46090;SDS011;31826;53.572;10.170;2022-07-22T03:54:56;6.28;;;1.80;;
46090;SDS011;31826;53.572;10.170;2022-07-22T03:57:22;8.43;;;2.05;;
46090;SDS011;31826;53.572;10.170;2022-07-22T03:59:47;8.77;;;2.65;;
46090;SDS011;31826;53.572;10.170;2022-07-22T04:02:13;9.70;;;2.30;;
46090;SDS011;31826;53.572;10.170;2022-07-22T04:04:39;6.78;;;1.80;;
46090;SDS011;31826;53.572;10.170;2022-07-22T04:07:06;8.40;;;2.53;;
46090;SDS011;31826;53.572;10.170;2022-07-22T04:09:32;10.53;;;2.40;;
46090;SDS011;31826;53.572;10.170;2022-07-22T04:11:58;6.90;;;2.00;;
46090;SDS011;31826;53.572;10.170;2022-07-22T04:14:24;7.30;;;1.90;;
46090;SDS011;31826;53.572;10.170;2022-07-22T04:16:50;10.60;;;2.25;;
46090;SDS011;31826;53.572;10.170;2022-07-22T04:19:15;6.32;;;1.80;;
46090;SDS011;31826;53.572;10.170;2022-07-22T04:21:41;5.63;;;1.80;;
46090;SDS011;31826;53.572;10.170;2022-07-22T04:24:07;5.97;;;1.97;;
46090;SDS011;31826;53.572;10.170;2022-07-22T04:26:33;5.78;;;1.77;;
46090;SDS011;31826;53.572;10.170;2022-07-22T04:28:59;4.60;;;1.90;;
46090;SDS011;31826;53.572;10.170;2022-07-22T04:31:25;6.77;;;2.30;;
46090;SDS011;31826;53.572;10.170;2022-07-22T04:33:50;8.13;;;2.10;;
46090;SDS011;31826;53.572;10.170;2022-07-22T04:36:16;7.30;;;2.22;;
46090;SDS011;31826;53.572;10.170;2022-07-22T04:38:42;7.10;;;2.20;;
46090;SDS011;31826;53.572;10.170;2022-07-22T04:41:08;5.40;;;1.90;;
46090;SDS011;31826;53.572;10.170;2022-07-22T04:43:33;5.00;;;2.07;;
46090;SDS011;31826;53.572;10.170;2022-07-22T04:45:59;4.23;;;1.80;;
46090;SDS011;31826;53.572;10.170;2022-07-22T04:48:25;7.87;;;2.17;;
46090;SDS011;31826;53.572;10.170;2022-07-22T04:50:51;8.57;;;2.17;;
46090;SDS011;31826;53.572;10.170;2022-07-22T04:53:16;6.88;;;2.30;;
46090;SDS011;31826;53.572;10.170;2022-07-22T04:55:42;5.88;;;1.92;;
46090;SDS011;31826;53.572;10.170;2022-07-22T04:58:08;6.68;;;2.47;;
46090;SDS011;31826;53.572;10.170;2022-07-22T05:00:34;5.93;;;2.20;;
46090;SDS011;31826;53.572;10.170;2022-07-22T05:02:59;7.10;;;2.30;;
46090;SDS011;31826;53.572;10.170;2022-07-22T05:05:25;8.48;;;2.45;;
46090;SDS011;31826;53.572;10.170;2022-07-22T05:07:51;5.05;;;2.08;;
46090;SDS011;31826;53.572;10.170;2022-07-22T05:10:17;9.85;;;2.67;;
46090;SDS011;31826;53.572;10.170;2022-07-22T05:12:42;4.93;;;1.70;;
46090;SDS011;31826;53.572;10.170;2022-07-22T05:15:08;7.10;;;1.75;;
46090;SDS011;31826;53.572;10.170;2022-07-22T05:17:34;6.95;;;1.90;;
46090;SDS011;31826;53.572;10.170;2022-07-22T05:20:03;5.80;;;1.88;;
46090;SDS011;31826;53.572;10.170;2022-07-22T05:22:30;6.00;;;1.90;;
46090;SDS011;31826;53.572;10.170;2022-07-22T05:24:55;4.27;;;1.60;;
46090;SDS011;31826;53.572;10.170;2022-07-22T05:27:21;3.10;;;1.50;;
46090;SDS011;31826;53.572;10.170;2022-07-22T05:29:47;3.00;;;1.70;;
46090;SDS011;31826;53.572;10.170;2022-07-22T05:32:13;4.88;;;1.60;;
46090;SDS011;31826;53.572;10.170;2022-07-22T05:34:39;3.75;;;1.85;;
46090;SDS011;31826;53.572;10.170;2022-07-22T05:37:04;3.97;;;1.65;;
46090;SDS011;31826;53.572;10.170;2022-07-22T05:39:30;4.40;;;1.90;;
46090;SDS011;31826;53.572;10.170;2022-07-22T05:41:56;7.22;;;2.00;;
46090;SDS011;31826;53.572;10.170;2022-07-22T05:44:22;8.40;;;2.40;;
46090;SDS011;31826;53.572;10.170;2022-07-22T05:46:47;7.67;;;2.40;;
46090;SDS011;31826;53.572;10.170;2022-07-22T05:49:13;5.05;;;2.08;;
46090;SDS011;31826;53.572;10.170;2022-07-22T05:51:39;8.93;;;2.10;;
46090;SDS011;31826;53.572;10.170;2022-07-22T05:54:04;8.55;;;2.72;;
46090;SDS011;31826;53.572;10.170;2022-07-22T05:56:30;12.53;;;2.70;;
46090;SDS011;31826;53.572;10.170;2022-07-22T05:58:56;13.05;;;2.78;;
46090;SDS011;31826;53.572;10.170;2022-07-22T06:01:22;7.10;;;2.60;;
46090;SDS011;31826;53.572;10.170;2022-07-22T06:03:48;7.30;;;2.30;;
46090;SDS011;31826;53.572;10.170;2022-07-22T06:06:14;9.30;;;2.83;;
46090;SDS011;31826;53.572;10.170;2022-07-22T06:08:39;7.20;;;2.90;;
46090;SDS011;31826;53.572;10.170;2022-07-22T06:11:05;12.87;;;3.00;;
46090;SDS011;31826;53.572;10.170;2022-07-22T06:13:31;9.48;;;2.90;;
46090;SDS011;31826;53.572;10.170;2022-07-22T06:15:58;11.32;;;3.17;;
46090;SDS011;31826;53.572;10.170;2022-07-22T06:18:24;9.23;;;2.60;;
46090;SDS011;31826;53.572;10.170;2022-07-22T06:20:50;12.57;;;2.50;;
46090;SDS011;31826;53.572;10.170;2022-07-22T06:23:16;10.40;;;2.50;;
46090;SDS011;31826;53.572;10.170;2022-07-22T06:25:42;9.70;;;2.50;;
46090;SDS011;31826;53.572;10.170;2022-07-22T06:28:08;9.47;;;2.93;;
46090;SDS011;31826;53.572;10.170;2022-07-22T06:30:34;7.85;;;2.72;;
46090;SDS011;31826;53.572;10.170;2022-07-22T06:33:00;7.25;;;2.88;;
46090;SDS011;31826;53.572;10.170;2022-07-22T06:35:25;7.80;;;2.27;;
46090;SDS011;31826;53.572;10.170;2022-07-22T06:37:52;7.17;;;3.07;;
46090;SDS011;31826;53.572;10.170;2022-07-22T06:40:18;6.93;;;2.72;;
46090;SDS011;31826;53.572;10.170;2022-07-22T06:42:43;9.48;;;2.45;;
46090;SDS011;31826;53.572;10.170;2022-07-22T06:45:09;7.90;;;2.42;;
46090;SDS011;31826;53.572;10.170;2022-07-22T06:47:35;11.70;;;2.80;;
46090;SDS011;31826;53.572;10.170;2022-07-22T06:50:02;11.73;;;2.50;;
46090;SDS011;31826;53.572;10.170;2022-07-22T06:52:29;11.85;;;2.55;;
46090;SDS011;31826;53.572;10.170;2022-07-22T06:54:55;11.65;;;3.05;;
46090;SDS011;31826;53.572;10.170;2022-07-22T06:57:21;8.80;;;2.90;;
46090;SDS011;31826;53.572;10.170;2022-07-22T06:59:46;11.20;;;2.63;;
46090;SDS011;31826;53.572;10.170;2022-07-22T07:02:12;5.93;;;2.20;;
46090;SDS011;31826;53.572;10.170;2022-07-22T07:04:38;10.85;;;2.65;;
46090;SDS011;31826;53.572;10.170;2022-07-22T07:07:03;10.35;;;3.15;;
46090;SDS011;31826;53.572;10.170;2022-07-22T07:09:29;8.18;;;2.40;;
46090;SDS011;31826;53.572;10.170;2022-07-22T07:11:55;10.80;;;2.40;;
46090;SDS011;31826;53.572;10.170;2022-07-22T07:14:21;7.00;;;2.30;;
46090;SDS011;31826;53.572;10.170;2022-07-22T07:16:46;11.25;;;2.83;;
46090;SDS011;31826;53.572;10.170;2022-07-22T07:19:12;7.22;;;2.90;;
46090;SDS011;31826;53.572;10.170;2022-07-22T07:21:38;7.03;;;2.15;;
46090;SDS011;31826;53.572;10.170;2022-07-22T07:24:04;6.55;;;2.10;;
46090;SDS011;31826;53.572;10.170;2022-07-22T07:26:30;10.18;;;2.85;;
46090;SDS011;31826;53.572;10.170;2022-07-22T07:28:56;10.50;;;3.00;;
46090;SDS011;31826;53.572;10.170;2022-07-22T07:31:21;11.40;;;3.00;;
46090;SDS011;31826;53.572;10.170;2022-07-22T07:33:47;8.38;;;2.58;;
46090;SDS011;31826;53.572;10.170;2022-07-22T07:36:13;8.17;;;2.57;;
46090;SDS011;31826;53.572;10.170;2022-07-22T07:38:39;9.20;;;2.57;;
46090;SDS011;31826;53.572;10.170;2022-07-22T07:41:05;10.60;;;2.47;;
46090;SDS011;31826;53.572;10.170;2022-07-22T07:43:31;9.43;;;3.33;;
46090;SDS011;31826;53.572;10.170;2022-07-22T07:45:57;11.37;;;2.83;;
46090;SDS011;31826;53.572;10.170;2022-07-22T07:48:23;9.35;;;2.30;;
46090;SDS011;31826;53.572;10.170;2022-07-22T07:50:49;9.30;;;2.40;;
46090;SDS011;31826;53.572;10.170;2022-07-22T07:53:15;12.50;;;2.85;;
46090;SDS011;31826;53.572;10.170;2022-07-22T07:55:41;9.55;;;2.63;;
46090;SDS011;31826;53.572;10.170;2022-07-22T07:58:07;9.80;;;2.50;;
46090;SDS011;31826;53.572;10.170;2022-07-22T08:00:33;9.02;;;2.47;;
46090;SDS011;31826;53.572;10.170;2022-07-22T08:03:00;11.25;;;2.78;;
46090;SDS011;31826;53.572;10.170;2022-07-22T08:05:27;10.90;;;2.20;;
46090;SDS011;31826;53.572;10.170;2022-07-22T08:07:54;9.98;;;2.63;;
46090;SDS011;31826;53.572;10.170;2022-07-22T08:10:20;8.33;;;2.30;;
46090;SDS011;31826;53.572;10.170;2022-07-22T08:12:46;13.02;;;2.40;;
46090;SDS011;31826;53.572;10.170;2022-07-22T08:15:13;11.50;;;2.50;;
46090;SDS011;31826;53.572;10.170;2022-07-22T08:17:38;9.27;;;2.25;;
46090;SDS011;31826;53.572;10.170;2022-07-22T08:20:04;7.63;;;2.05;;
46090;SDS011;31826;53.572;10.170;2022-07-22T08:22:31;8.50;;;2.03;;
46090;SDS011;31826;53.572;10.170;2022-07-22T08:24:56;6.43;;;2.10;;
46090;SDS011;31826;53.572;10.170;2022-07-22T08:27:22;5.35;;;1.73;;
46090;SDS011;31826;53.572;10.170;2022-07-22T08:29:48;8.93;;;2.38;;
46090;SDS011;31826;53.572;10.170;2022-07-22T08:32:14;13.50;;;2.50;;
46090;SDS011;31826;53.572;10.170;2022-07-22T08:34:40;10.02;;;2.20;;
46090;SDS011;31826;53.572;10.170;2022-07-22T08:37:05;8.13;;;2.10;;
46090;SDS011;31826;53.572;10.170;2022-07-22T08:39:31;8.82;;;2.35;;
46090;SDS011;31826;53.572;10.170;2022-07-22T08:41:59;10.95;;;2.92;;
46090;SDS011;31826;53.572;10.170;2022-07-22T08:44:24;7.40;;;2.20;;
46090;SDS011;31826;53.572;10.170;2022-07-22T08:46:53;10.40;;;1.88;;
46090;SDS011;31826;53.572;10.170;2022-07-22T08:49:19;11.18;;;2.20;;
46090;SDS011;31826;53.572;10.170;2022-07-22T08:51:45;9.90;;;2.10;;
46090;SDS011;31826;53.572;10.170;2022-07-22T08:54:11;5.57;;;1.90;;
46090;SDS011;31826;53.572;10.170;2022-07-22T08:56:36;6.33;;;2.00;;
46090;SDS011;31826;53.572;10.170;2022-07-22T08:59:03;8.68;;;1.85;;
46090;SDS011;31826;53.572;10.170;2022-07-22T09:01:29;8.15;;;1.85;;
46090;SDS011;31826;53.572;10.170;2022-07-22T09:03:55;6.65;;;1.67;;
46090;SDS011;31826;53.572;10.170;2022-07-22T09:06:23;6.90;;;1.90;;
46090;SDS011;31826;53.572;10.170;2022-07-22T09:08:58;8.33;;;1.90;;
46090;SDS011;31826;53.572;10.170;2022-07-22T09:11:26;6.70;;;2.03;;
46090;SDS011;31826;53.572;10.170;2022-07-22T09:13:59;6.72;;;1.70;;
46090;SDS011;31826;53.572;10.170;2022-07-22T09:16:45;4.65;;;1.50;;
46090;SDS011;31826;53.572;10.170;2022-07-22T09:19:12;6.43;;;1.70;;
46090;SDS011;31826;53.572;10.170;2022-07-22T09:21:43;9.63;;;1.65;;
46090;SDS011;31826;53.572;10.170;2022-07-22T09:24:33;9.30;;;2.00;;
46090;SDS011;31826;53.572;10.170;2022-07-22T09:26:59;4.88;;;1.83;;
46090;SDS011;31826;53.572;10.170;2022-07-22T09:29:25;5.90;;;1.65;;
46090;SDS011;31826;53.572;10.170;2022-07-22T09:31:51;6.70;;;2.00;;
46090;SDS011;31826;53.572;10.170;2022-07-22T09:34:35;5.88;;;1.80;;
46090;SDS011;31826;53.572;10.170;2022-07-22T09:37:01;6.22;;;1.48;;
46090;SDS011;31826;53.572;10.170;2022-07-22T09:39:28;6.72;;;1.60;;
46090;SDS011;31826;53.572;10.170;2022-07-22T09:42:04;7.55;;;1.85;;
46090;SDS011;31826;53.572;10.170;2022-07-22T09:44:31;5.83;;;2.00;;
46090;SDS011;31826;53.572;10.170;2022-07-22T09:46:57;8.13;;;1.60;;
46090;SDS011;31826;53.572;10.170;2022-07-22T09:49:34;8.02;;;1.60;;
46090;SDS011;31826;53.572;10.170;2022-07-22T09:52:04;6.18;;;1.58;;
46090;SDS011;31826;53.572;10.170;2022-07-22T09:54:30;8.90;;;1.70;;
46090;SDS011;31826;53.572;10.170;2022-07-22T09:56:56;5.20;;;1.55;;
46090;SDS011;31826;53.572;10.170;2022-07-22T09:59:22;6.50;;;1.42;;
46090;SDS011;31826;53.572;10.170;2022-07-22T10:01:50;4.75;;;1.73;;
46090;SDS011;31826;53.572;10.170;2022-07-22T10:04:19;6.25;;;1.70;;
46090;SDS011;31826;53.572;10.170;2022-07-22T10:06:46;7.30;;;1.60;;
46090;SDS011;31826;53.572;10.170;2022-07-22T10:09:14;5.93;;;1.88;;
46090;SDS011;31826;53.572;10.170;2022-07-22T10:11:41;5.00;;;1.60;;
46090;SDS011;31826;53.572;10.170;2022-07-22T10:14:11;5.57;;;1.60;;
46090;SDS011;31826;53.572;10.170;2022-07-22T10:16:41;5.83;;;1.63;;
46090;SDS011;31826;53.572;10.170;2022-07-22T10:19:08;3.80;;;1.30;;
46090;SDS011;31826;53.572;10.170;2022-07-22T10:21:34;5.18;;;1.40;;
46090;SDS011;31826;53.572;10.170;2022-07-22T10:24:07;5.60;;;2.17;;
46090;SDS011;31826;53.572;10.170;2022-07-22T10:29:46;4.63;;;1.55;;
46090;SDS011;31826;53.572;10.170;2022-07-22T10:34:41;5.30;;;1.38;;
46090;SDS011;31826;53.572;10.170;2022-07-22T10:45:28;8.57;;;1.67;;
46090;SDS011;31826;53.572;10.170;2022-07-22T10:48:54;8.10;;;2.40;;
46090;SDS011;31826;53.572;10.170;2022-07-22T10:56:28;7.32;;;1.75;;
46090;SDS011;31826;53.572;10.170;2022-07-22T11:01:33;4.53;;;1.67;;
46090;SDS011;31826;53.572;10.170;2022-07-22T11:04:18;8.67;;;1.60;;
46090;SDS011;31826;53.572;10.170;2022-07-22T11:06:45;5.23;;;1.63;;
46090;SDS011;31826;53.572;10.170;2022-07-22T11:09:13;7.00;;;1.83;;
46090;SDS011;31826;53.572;10.170;2022-07-22T11:11:41;7.35;;;2.20;;
46090;SDS011;31826;53.572;10.170;2022-07-22T11:16:41;8.40;;;1.83;;
46090;SDS011;31826;53.572;10.170;2022-07-22T11:19:08;10.15;;;1.75;;
46090;SDS011;31826;53.572;10.170;2022-07-22T11:21:34;8.30;;;2.30;;
46090;SDS011;31826;53.572;10.170;2022-07-22T11:24:01;5.40;;;1.80;;
46090;SDS011;31826;53.572;10.170;2022-07-22T11:26:45;5.95;;;1.35;;
46090;SDS011;31826;53.572;10.170;2022-07-22T11:29:16;4.88;;;1.58;;
46090;SDS011;31826;53.572;10.170;2022-07-22T11:31:51;4.38;;;1.60;;
46090;SDS011;31826;53.572;10.170;2022-07-22T11:34:18;5.15;;;1.42;;
46090;SDS011;31826;53.572;10.170;2022-07-22T11:36:45;6.43;;;1.30;;
46090;SDS011;31826;53.572;10.170;2022-07-22T11:39:12;5.50;;;1.30;;
46090;SDS011;31826;53.572;10.170;2022-07-22T11:41:39;5.25;;;1.58;;
46090;SDS011;31826;53.572;10.170;2022-07-22T11:44:06;6.65;;;1.73;;
46090;SDS011;31826;53.572;10.170;2022-07-22T11:46:40;5.28;;;1.60;;
46090;SDS011;31826;53.572;10.170;2022-07-22T11:49:07;7.07;;;1.55;;
46090;SDS011;31826;53.572;10.170;2022-07-22T11:51:35;6.88;;;1.73;;
46090;SDS011;31826;53.572;10.170;2022-07-22T11:54:02;6.65;;;1.98;;
46090;SDS011;31826;53.572;10.170;2022-07-22T11:56:29;4.35;;;1.42;;
46090;SDS011;31826;53.572;10.170;2022-07-22T11:58:56;5.78;;;1.52;;
46090;SDS011;31826;53.572;10.170;2022-07-22T12:01:26;7.75;;;1.67;;
46090;SDS011;31826;53.572;10.170;2022-07-22T12:03:54;9.10;;;2.50;;
46090;SDS011;31826;53.572;10.170;2022-07-22T12:06:22;6.10;;;1.55;;
46090;SDS011;31826;53.572;10.170;2022-07-22T12:08:56;5.63;;;1.33;;
46090;SDS011;31826;53.572;10.170;2022-07-22T12:11:27;4.57;;;1.52;;
46090;SDS011;31826;53.572;10.170;2022-07-22T12:13:54;5.30;;;1.33;;
46090;SDS011;31826;53.572;10.170;2022-07-22T12:16:20;4.03;;;1.40;;
46090;SDS011;31826;53.572;10.170;2022-07-22T12:21:57;5.28;;;1.38;;
46090;SDS011;31826;53.572;10.170;2022-07-22T12:24:34;5.22;;;1.50;;
46090;SDS011;31826;53.572;10.170;2022-07-22T12:27:01;6.07;;;1.40;;
46090;SDS011;31826;53.572;10.170;2022-07-22T12:32:43;5.95;;;1.40;;
46090;SDS011;31826;53.572;10.170;2022-07-22T12:34:47;5.40;;;1.60;;
46090;SDS011;31826;53.572;10.170;2022-07-22T12:40:00;4.43;;;1.35;;
46090;SDS011;31826;53.572;10.170;2022-07-22T12:42:33;5.45;;;1.42;;
46090;SDS011;31826;53.572;10.170;2022-07-22T12:45:06;3.58;;;1.40;;
46090;SDS011;31826;53.572;10.170;2022-07-22T12:47:42;4.67;;;1.40;;
46090;SDS011;31826;53.572;10.170;2022-07-22T12:50:25;5.25;;;1.33;;
46090;SDS011;31826;53.572;10.170;2022-07-22T12:52:53;2.57;;;1.30;;
46090;SDS011;31826;53.572;10.170;2022-07-22T12:55:20;5.88;;;1.60;;
46090;SDS011;31826;53.572;10.170;2022-07-22T12:57:47;6.97;;;1.67;;
46090;SDS011;31826;53.572;10.170;2022-07-22T13:00:20;4.30;;;1.50;;
46090;SDS011;31826;53.572;10.170;2022-07-22T13:02:51;5.10;;;2.33;;
46090;SDS011;31826;53.572;10.170;2022-07-22T13:05:18;4.07;;;1.80;;
46090;SDS011;31826;53.572;10.170;2022-07-22T13:07:44;3.40;;;1.23;;
46090;SDS011;31826;53.572;10.170;2022-07-22T13:10:10;3.63;;;1.70;;
46090;SDS011;31826;53.572;10.170;2022-07-22T13:12:37;3.65;;;1.20;;
46090;SDS011;31826;53.572;10.170;2022-07-22T13:15:04;2.95;;;1.10;;
46090;SDS011;31826;53.572;10.170;2022-07-22T13:17:30;3.78;;;1.65;;
46090;SDS011;31826;53.572;10.170;2022-07-22T13:19:56;5.75;;;1.30;;
46090;SDS011;31826;53.572;10.170;2022-07-22T13:22:22;2.80;;;1.17;;
46090;SDS011;31826;53.572;10.170;2022-07-22T13:24:48;2.73;;;1.30;;
46090;SDS011;31826;53.572;10.170;2022-07-22T13:27:13;3.17;;;1.10;;
46090;SDS011;31826;53.572;10.170;2022-07-22T13:29:40;5.05;;;1.50;;
46090;SDS011;31826;53.572;10.170;2022-07-22T13:32:06;4.00;;;1.20;;
46090;SDS011;31826;53.572;10.170;2022-07-22T13:34:32;3.30;;;1.17;;
46090;SDS011;31826;53.572;10.170;2022-07-22T13:36:57;5.30;;;1.43;;
46090;SDS011;31826;53.572;10.170;2022-07-22T13:39:24;4.30;;;1.40;;
46090;SDS011;31826;53.572;10.170;2022-07-22T13:41:50;4.13;;;1.35;;
46090;SDS011;31826;53.572;10.170;2022-07-22T13:44:16;5.53;;;1.27;;
46090;SDS011;31826;53.572;10.170;2022-07-22T13:46:42;7.65;;;1.63;;
46090;SDS011;31826;53.572;10.170;2022-07-22T13:49:07;5.63;;;2.30;;
46090;SDS011;31826;53.572;10.170;2022-07-22T13:51:33;2.90;;;1.10;;
46090;SDS011;31826;53.572;10.170;2022-07-22T13:53:59;3.27;;;2.07;;
46090;SDS011;31826;53.572;10.170;2022-07-22T13:56:25;4.25;;;1.60;;
46090;SDS011;31826;53.572;10.170;2022-07-22T13:58:51;5.10;;;1.50;;
46090;SDS011;31826;53.572;10.170;2022-07-22T14:01:16;5.28;;;1.70;;
46090;SDS011;31826;53.572;10.170;2022-07-22T14:03:42;5.47;;;1.48;;
46090;SDS011;31826;53.572;10.170;2022-07-22T14:06:08;3.40;;;1.40;;
46090;SDS011;31826;53.572;10.170;2022-07-22T14:08:34;3.83;;;1.30;;
46090;SDS011;31826;53.572;10.170;2022-07-22T14:11:01;8.05;;;1.88;;
46090;SDS011;31826;53.572;10.170;2022-07-22T14:13:27;4.20;;;1.33;;
46090;SDS011;31826;53.572;10.170;2022-07-22T14:15:53;5.38;;;1.23;;
46090;SDS011;31826;53.572;10.170;2022-07-22T14:18:19;3.15;;;1.23;;
46090;SDS011;31826;53.572;10.170;2022-07-22T14:20:44;3.43;;;1.20;;
46090;SDS011;31826;53.572;10.170;2022-07-22T14:23:10;2.80;;;1.17;;
46090;SDS011;31826;53.572;10.170;2022-07-22T14:25:37;5.95;;;1.42;;
46090;SDS011;31826;53.572;10.170;2022-07-22T14:28:03;4.43;;;1.50;;
46090;SDS011;31826;53.572;10.170;2022-07-22T14:30:30;4.03;;;1.40;;
46090;SDS011;31826;53.572;10.170;2022-07-22T14:32:56;4.88;;;1.40;;
46090;SDS011;31826;53.572;10.170;2022-07-22T14:35:22;4.50;;;1.33;;
46090;SDS011;31826;53.572;10.170;2022-07-22T14:37:48;4.20;;;1.30;;
46090;SDS011;31826;53.572;10.170;2022-07-22T14:40:14;4.63;;;1.20;;
46090;SDS011;31826;53.572;10.170;2022-07-22T14:42:40;4.27;;;1.27;;
46090;SDS011;31826;53.572;10.170;2022-07-22T14:45:06;4.65;;;1.27;;
46090;SDS011;31826;53.572;10.170;2022-07-22T14:47:34;3.10;;;1.20;;
46090;SDS011;31826;53.572;10.170;2022-07-22T14:50:02;4.40;;;1.38;;
46090;SDS011;31826;53.572;10.170;2022-07-22T14:52:28;5.28;;;1.67;;
46090;SDS011;31826;53.572;10.170;2022-07-22T14:54:54;3.58;;;1.30;;
46090;SDS011;31826;53.572;10.170;2022-07-22T14:57:19;7.83;;;1.43;;
46090;SDS011;31826;53.572;10.170;2022-07-22T14:59:45;2.47;;;1.13;;
46090;SDS011;31826;53.572;10.170;2022-07-22T15:02:11;5.30;;;1.60;;